sensor_id;sensor_type;location;lat;lon;timestamp;P1;durP1;ratioP1;P2;durP2;ratioP2
3589;SDS011;1809;48.470;9.226;2023-02-28T00:00:32;3.87;;;3.33;;
3589;SDS011;1809;48.470;9.226;2023-02-28T00:02:58;3.63;;;3.30;;
3589;SDS011;1809;48.470;9.226;2023-02-28T00:05:25;5.43;;;2.77;;
3589;SDS011;1809;48.470;9.226;2023-02-28T00:07:51;3.20;;;2.57;;
3589;SDS011;1809;48.470;9.226;2023-02-28T00:10:21;4.47;;;2.90;;
3589;SDS011;1809;48.470;9.226;2023-02-28T00:12:48;3.40;;;3.10;;
3589;SDS011;1809;48.470;9.226;2023-02-28T00:15:14;3.50;;;3.20;;
3589;SDS011;1809;48.470;9.226;2023-02-28T00:17:40;5.27;;;3.00;;
3589;SDS011;1809;48.470;9.226;2023-02-28T00:20:06;4.33;;;3.30;;
3589;SDS011;1809;48.470;9.226;2023-02-28T00:22:35;2.83;;;2.63;;
3589;SDS011;1809;48.470;9.226;2023-02-28T00:25:02;2.80;;;2.60;;
3589;SDS011;1809;48.470;9.226;2023-02-28T00:27:28;7.57;;;3.73;;
3589;SDS011;1809;48.470;9.226;2023-02-28T00:29:54;3.07;;;2.80;;
3589;SDS011;1809;48.470;9.226;2023-02-28T00:32:21;6.30;;;4.40;;
3589;SDS011;1809;48.470;9.226;2023-02-28T00:34:46;4.47;;;3.30;;
3589;SDS011;1809;48.470;9.226;2023-02-28T00:37:12;4.63;;;3.10;;
3589;SDS011;1809;48.470;9.226;2023-02-28T00:39:38;3.40;;;3.20;;
3589;SDS011;1809;48.470;9.226;2023-02-28T00:42:04;3.03;;;2.83;;
3589;SDS011;1809;48.470;9.226;2023-02-28T00:44:30;2.37;;;2.27;;
3589;SDS011;1809;48.470;9.226;2023-02-28T00:46:56;3.33;;;3.03;;
3589;SDS011;1809;48.470;9.226;2023-02-28T00:49:23;3.43;;;3.13;;
3589;SDS011;1809;48.470;9.226;2023-02-28T00:51:48;3.67;;;3.40;;
3589;SDS011;1809;48.470;9.226;2023-02-28T00:54:14;4.43;;;3.37;;
3589;SDS011;1809;48.470;9.226;2023-02-28T00:56:39;3.13;;;2.93;;
3589;SDS011;1809;48.470;9.226;2023-02-28T00:59:05;3.57;;;3.27;;
3589;SDS011;1809;48.470;9.226;2023-02-28T01:01:30;5.90;;;3.00;;
3589;SDS011;1809;48.470;9.226;2023-02-28T01:03:56;2.90;;;2.60;;
3589;SDS011;1809;48.470;9.226;2023-02-28T01:06:21;5.07;;;2.63;;
3589;SDS011;1809;48.470;9.226;2023-02-28T01:08:46;5.20;;;3.13;;
3589;SDS011;1809;48.470;9.226;2023-02-28T01:11:12;2.93;;;2.47;;
3589;SDS011;1809;48.470;9.226;2023-02-28T01:13:39;4.93;;;2.97;;
3589;SDS011;1809;48.470;9.226;2023-02-28T01:16:05;2.67;;;2.47;;
3589;SDS011;1809;48.470;9.226;2023-02-28T01:18:31;3.47;;;3.17;;
3589;SDS011;1809;48.470;9.226;2023-02-28T01:20:56;3.57;;;3.27;;
3589;SDS011;1809;48.470;9.226;2023-02-28T01:23:22;4.00;;;3.63;;
3589;SDS011;1809;48.470;9.226;2023-02-28T01:25:49;15.67;;;3.20;;
3589;SDS011;1809;48.470;9.226;2023-02-28T01:28:17;3.17;;;2.73;;
3589;SDS011;1809;48.470;9.226;2023-02-28T01:30:46;3.60;;;3.07;;
3589;SDS011;1809;48.470;9.226;2023-02-28T01:33:12;5.53;;;3.20;;
3589;SDS011;1809;48.470;9.226;2023-02-28T01:35:38;2.90;;;2.70;;
3589;SDS011;1809;48.470;9.226;2023-02-28T01:38:03;4.07;;;3.10;;
3589;SDS011;1809;48.470;9.226;2023-02-28T01:40:28;3.57;;;2.70;;
3589;SDS011;1809;48.470;9.226;2023-02-28T01:42:54;2.87;;;2.67;;
3589;SDS011;1809;48.470;9.226;2023-02-28T01:45:27;4.20;;;3.10;;
3589;SDS011;1809;48.470;9.226;2023-02-28T01:47:55;4.73;;;3.43;;
3589;SDS011;1809;48.470;9.226;2023-02-28T01:50:26;3.60;;;3.03;;
3589;SDS011;1809;48.470;9.226;2023-02-28T01:52:55;3.47;;;2.83;;
3589;SDS011;1809;48.470;9.226;2023-02-28T01:55:25;3.87;;;3.33;;
3589;SDS011;1809;48.470;9.226;2023-02-28T01:57:55;5.07;;;2.70;;
3589;SDS011;1809;48.470;9.226;2023-02-28T02:00:23;6.40;;;3.23;;
3589;SDS011;1809;48.470;9.226;2023-02-28T02:02:52;3.73;;;3.43;;
3589;SDS011;1809;48.470;9.226;2023-02-28T02:05:24;2.50;;;2.30;;
3589;SDS011;1809;48.470;9.226;2023-02-28T02:07:57;4.47;;;3.27;;
3589;SDS011;1809;48.470;9.226;2023-02-28T02:10:36;4.40;;;3.53;;
3589;SDS011;1809;48.470;9.226;2023-02-28T02:18:54;3.30;;;3.10;;
3589;SDS011;1809;48.470;9.226;2023-02-28T02:40:41;3.90;;;3.50;;
3589;SDS011;1809;48.470;9.226;2023-02-28T02:43:24;3.20;;;2.90;;
3589;SDS011;1809;48.470;9.226;2023-02-28T02:45:59;4.60;;;3.40;;
3589;SDS011;1809;48.470;9.226;2023-02-28T02:48:30;3.27;;;2.97;;
3589;SDS011;1809;48.470;9.226;2023-02-28T02:50:59;4.53;;;3.70;;
3589;SDS011;1809;48.470;9.226;2023-02-28T02:53:32;6.73;;;3.03;;
3589;SDS011;1809;48.470;9.226;2023-02-28T02:56:02;3.43;;;3.00;;
3589;SDS011;1809;48.470;9.226;2023-02-28T02:58:31;3.93;;;3.63;;
3589;SDS011;1809;48.470;9.226;2023-02-28T03:01:01;3.37;;;3.07;;
3589;SDS011;1809;48.470;9.226;2023-02-28T03:03:28;6.47;;;2.93;;
3589;SDS011;1809;48.470;9.226;2023-02-28T03:05:57;5.53;;;4.10;;
3589;SDS011;1809;48.470;9.226;2023-02-28T03:08:24;4.23;;;3.30;;
3589;SDS011;1809;48.470;9.226;2023-02-28T03:10:51;7.37;;;5.10;;
3589;SDS011;1809;48.470;9.226;2023-02-28T03:13:30;9.33;;;5.27;;
3589;SDS011;1809;48.470;9.226;2023-02-28T03:17:03;15.87;;;7.50;;
3589;SDS011;1809;48.470;9.226;2023-02-28T03:22:19;7.33;;;5.13;;
3589;SDS011;1809;48.470;9.226;2023-02-28T03:30:54;4.17;;;3.50;;
3589;SDS011;1809;48.470;9.226;2023-02-28T03:33:39;3.47;;;3.00;;
3589;SDS011;1809;48.470;9.226;2023-02-28T03:36:10;4.07;;;3.23;;
3589;SDS011;1809;48.470;9.226;2023-02-28T03:38:43;3.90;;;3.50;;
3589;SDS011;1809;48.470;9.226;2023-02-28T03:43:55;3.27;;;2.80;;
3589;SDS011;1809;48.470;9.226;2023-02-28T03:46:25;5.47;;;3.37;;
3589;SDS011;1809;48.470;9.226;2023-02-28T03:48:55;3.43;;;3.10;;
3589;SDS011;1809;48.470;9.226;2023-02-28T03:51:27;6.23;;;3.53;;
3589;SDS011;1809;48.470;9.226;2023-02-28T03:53:54;3.83;;;3.53;;
3589;SDS011;1809;48.470;9.226;2023-02-28T03:56:27;4.50;;;3.63;;
3589;SDS011;1809;48.470;9.226;2023-02-28T03:59:07;3.60;;;3.23;;
3589;SDS011;1809;48.470;9.226;2023-02-28T04:01:42;4.50;;;3.40;;
3589;SDS011;1809;48.470;9.226;2023-02-28T04:04:10;3.67;;;2.87;;
3589;SDS011;1809;48.470;9.226;2023-02-28T04:06:37;3.53;;;3.23;;
3589;SDS011;1809;48.470;9.226;2023-02-28T04:09:04;3.73;;;3.40;;
3589;SDS011;1809;48.470;9.226;2023-02-28T04:14:03;4.00;;;3.60;;
3589;SDS011;1809;48.470;9.226;2023-02-28T04:16:30;4.70;;;3.90;;
3589;SDS011;1809;48.470;9.226;2023-02-28T04:18:56;10.30;;;4.40;;
3589;SDS011;1809;48.470;9.226;2023-02-28T04:21:27;4.90;;;3.87;;
3589;SDS011;1809;48.470;9.226;2023-02-28T04:23:54;5.00;;;4.00;;
3589;SDS011;1809;48.470;9.226;2023-02-28T04:26:19;6.20;;;3.63;;
3589;SDS011;1809;48.470;9.226;2023-02-28T04:28:45;3.87;;;3.43;;
3589;SDS011;1809;48.470;9.226;2023-02-28T04:31:10;4.97;;;4.07;;
3589;SDS011;1809;48.470;9.226;2023-02-28T04:33:35;6.13;;;4.17;;
3589;SDS011;1809;48.470;9.226;2023-02-28T04:36:05;5.67;;;4.07;;
3589;SDS011;1809;48.470;9.226;2023-02-28T04:38:33;5.23;;;3.10;;
3589;SDS011;1809;48.470;9.226;2023-02-28T04:41:00;4.40;;;3.43;;
3589;SDS011;1809;48.470;9.226;2023-02-28T04:43:26;4.73;;;4.30;;
3589;SDS011;1809;48.470;9.226;2023-02-28T04:45:53;6.43;;;3.70;;
3589;SDS011;1809;48.470;9.226;2023-02-28T04:48:22;5.13;;;3.63;;
3589;SDS011;1809;48.470;9.226;2023-02-28T04:50:48;6.97;;;4.40;;
3589;SDS011;1809;48.470;9.226;2023-02-28T04:53:14;3.97;;;3.67;;
3589;SDS011;1809;48.470;9.226;2023-02-28T04:55:39;5.80;;;3.93;;
3589;SDS011;1809;48.470;9.226;2023-02-28T04:58:05;6.33;;;3.10;;
3589;SDS011;1809;48.470;9.226;2023-02-28T05:00:31;3.90;;;3.50;;
3589;SDS011;1809;48.470;9.226;2023-02-28T05:02:56;4.70;;;4.00;;
3589;SDS011;1809;48.470;9.226;2023-02-28T05:05:21;4.70;;;4.30;;
3589;SDS011;1809;48.470;9.226;2023-02-28T05:07:47;5.57;;;4.13;;
3589;SDS011;1809;48.470;9.226;2023-02-28T05:10:12;8.00;;;4.53;;
3589;SDS011;1809;48.470;9.226;2023-02-28T05:12:37;5.90;;;3.87;;
3589;SDS011;1809;48.470;9.226;2023-02-28T05:15:04;29.77;;;13.40;;
3589;SDS011;1809;48.470;9.226;2023-02-28T05:17:30;9.97;;;5.53;;
3589;SDS011;1809;48.470;9.226;2023-02-28T05:19:55;6.03;;;5.00;;
3589;SDS011;1809;48.470;9.226;2023-02-28T05:22:20;55.03;;;20.53;;
3589;SDS011;1809;48.470;9.226;2023-02-28T05:24:46;7.73;;;5.00;;
3589;SDS011;1809;48.470;9.226;2023-02-28T05:27:11;7.00;;;4.70;;
3589;SDS011;1809;48.470;9.226;2023-02-28T05:29:36;4.77;;;4.13;;
3589;SDS011;1809;48.470;9.226;2023-02-28T05:32:10;5.13;;;4.70;;
3589;SDS011;1809;48.470;9.226;2023-02-28T05:34:37;6.33;;;4.87;;
3589;SDS011;1809;48.470;9.226;2023-02-28T05:37:03;5.57;;;4.77;;
3589;SDS011;1809;48.470;9.226;2023-02-28T05:39:29;9.70;;;5.43;;
3589;SDS011;1809;48.470;9.226;2023-02-28T05:41:54;4.87;;;4.37;;
3589;SDS011;1809;48.470;9.226;2023-02-28T05:44:20;4.70;;;4.37;;
3589;SDS011;1809;48.470;9.226;2023-02-28T05:46:45;10.17;;;6.87;;
3589;SDS011;1809;48.470;9.226;2023-02-28T05:49:10;6.20;;;5.30;;
3589;SDS011;1809;48.470;9.226;2023-02-28T05:51:36;5.70;;;5.20;;
3589;SDS011;1809;48.470;9.226;2023-02-28T05:54:04;7.37;;;5.10;;
3589;SDS011;1809;48.470;9.226;2023-02-28T05:56:30;6.30;;;4.83;;
3589;SDS011;1809;48.470;9.226;2023-02-28T05:58:55;7.23;;;5.47;;
3589;SDS011;1809;48.470;9.226;2023-02-28T06:03:48;7.50;;;5.23;;
3589;SDS011;1809;48.470;9.226;2023-02-28T06:06:14;10.23;;;5.57;;
3589;SDS011;1809;48.470;9.226;2023-02-28T06:08:39;10.90;;;5.30;;
3589;SDS011;1809;48.470;9.226;2023-02-28T06:11:05;10.90;;;5.90;;
3589;SDS011;1809;48.470;9.226;2023-02-28T06:13:31;13.97;;;6.10;;
3589;SDS011;1809;48.470;9.226;2023-02-28T06:16:00;7.73;;;6.17;;
3589;SDS011;1809;48.470;9.226;2023-02-28T06:18:26;7.70;;;5.27;;
3589;SDS011;1809;48.470;9.226;2023-02-28T06:20:54;5.80;;;5.13;;
3589;SDS011;1809;48.470;9.226;2023-02-28T06:23:20;6.30;;;5.43;;
3589;SDS011;1809;48.470;9.226;2023-02-28T06:25:46;7.53;;;5.23;;
3589;SDS011;1809;48.470;9.226;2023-02-28T06:28:12;6.40;;;5.13;;
3589;SDS011;1809;48.470;9.226;2023-02-28T06:30:37;7.90;;;5.83;;
3589;SDS011;1809;48.470;9.226;2023-02-28T06:33:04;9.50;;;5.20;;
3589;SDS011;1809;48.470;9.226;2023-02-28T06:35:29;16.00;;;5.90;;
3589;SDS011;1809;48.470;9.226;2023-02-28T06:37:55;11.70;;;5.60;;
3589;SDS011;1809;48.470;9.226;2023-02-28T06:40:20;14.50;;;8.07;;
3589;SDS011;1809;48.470;9.226;2023-02-28T06:42:46;9.10;;;7.10;;
3589;SDS011;1809;48.470;9.226;2023-02-28T06:45:11;13.53;;;8.47;;
3589;SDS011;1809;48.470;9.226;2023-02-28T06:47:37;9.60;;;7.70;;
3589;SDS011;1809;48.470;9.226;2023-02-28T06:50:04;12.53;;;6.63;;
3589;SDS011;1809;48.470;9.226;2023-02-28T06:52:30;11.70;;;6.47;;
3589;SDS011;1809;48.470;9.226;2023-02-28T06:54:56;10.17;;;6.80;;
3589;SDS011;1809;48.470;9.226;2023-02-28T06:57:31;14.97;;;7.43;;
3589;SDS011;1809;48.470;9.226;2023-02-28T06:59:58;10.73;;;7.23;;
3589;SDS011;1809;48.470;9.226;2023-02-28T07:02:24;15.37;;;8.50;;
3589;SDS011;1809;48.470;9.226;2023-02-28T07:04:50;8.07;;;6.23;;
3589;SDS011;1809;48.470;9.226;2023-02-28T07:07:15;13.13;;;7.73;;
3589;SDS011;1809;48.470;9.226;2023-02-28T07:09:40;13.20;;;7.43;;
3589;SDS011;1809;48.470;9.226;2023-02-28T07:12:06;14.00;;;8.07;;
3589;SDS011;1809;48.470;9.226;2023-02-28T07:14:31;14.33;;;8.17;;
3589;SDS011;1809;48.470;9.226;2023-02-28T07:16:56;11.27;;;7.90;;
3589;SDS011;1809;48.470;9.226;2023-02-28T07:19:22;9.67;;;6.93;;
3589;SDS011;1809;48.470;9.226;2023-02-28T07:21:47;12.17;;;7.70;;
3589;SDS011;1809;48.470;9.226;2023-02-28T07:24:12;12.00;;;7.50;;
3589;SDS011;1809;48.470;9.226;2023-02-28T07:26:40;10.20;;;7.47;;
3589;SDS011;1809;48.470;9.226;2023-02-28T07:29:06;8.70;;;6.43;;
3589;SDS011;1809;48.470;9.226;2023-02-28T07:31:31;13.93;;;7.43;;
3589;SDS011;1809;48.470;9.226;2023-02-28T07:33:56;9.83;;;7.00;;
3589;SDS011;1809;48.470;9.226;2023-02-28T07:36:22;13.73;;;6.97;;
3589;SDS011;1809;48.470;9.226;2023-02-28T07:38:47;9.57;;;7.10;;
3589;SDS011;1809;48.470;9.226;2023-02-28T07:41:18;14.10;;;8.03;;
3589;SDS011;1809;48.470;9.226;2023-02-28T07:43:45;14.80;;;8.03;;
3589;SDS011;1809;48.470;9.226;2023-02-28T07:46:12;9.57;;;6.97;;
3589;SDS011;1809;48.470;9.226;2023-02-28T07:48:40;12.07;;;7.60;;
3589;SDS011;1809;48.470;9.226;2023-02-28T07:51:06;21.50;;;9.50;;
3589;SDS011;1809;48.470;9.226;2023-02-28T07:53:31;10.20;;;7.57;;
3589;SDS011;1809;48.470;9.226;2023-02-28T07:55:57;9.90;;;7.03;;
3589;SDS011;1809;48.470;9.226;2023-02-28T07:58:24;11.57;;;7.90;;
3589;SDS011;1809;48.470;9.226;2023-02-28T08:00:50;12.17;;;8.27;;
3589;SDS011;1809;48.470;9.226;2023-02-28T08:03:19;12.03;;;7.10;;
3589;SDS011;1809;48.470;9.226;2023-02-28T08:05:46;15.67;;;7.80;;
3589;SDS011;1809;48.470;9.226;2023-02-28T08:08:12;20.87;;;8.20;;
3589;SDS011;1809;48.470;9.226;2023-02-28T08:10:38;12.40;;;7.90;;
3589;SDS011;1809;48.470;9.226;2023-02-28T08:13:03;10.13;;;6.63;;
3589;SDS011;1809;48.470;9.226;2023-02-28T08:15:29;12.70;;;8.33;;
3589;SDS011;1809;48.470;9.226;2023-02-28T08:17:54;10.43;;;7.10;;
3589;SDS011;1809;48.470;9.226;2023-02-28T08:20:21;12.80;;;8.77;;
3589;SDS011;1809;48.470;9.226;2023-02-28T08:22:47;11.40;;;7.60;;
3589;SDS011;1809;48.470;9.226;2023-02-28T08:25:13;13.90;;;7.77;;
3589;SDS011;1809;48.470;9.226;2023-02-28T08:27:38;15.63;;;8.33;;
3589;SDS011;1809;48.470;9.226;2023-02-28T08:30:03;14.70;;;8.93;;
3589;SDS011;1809;48.470;9.226;2023-02-28T08:32:29;11.00;;;8.10;;
3589;SDS011;1809;48.470;9.226;2023-02-28T08:34:55;9.73;;;7.90;;
3589;SDS011;1809;48.470;9.226;2023-02-28T08:37:20;11.70;;;7.70;;
3589;SDS011;1809;48.470;9.226;2023-02-28T08:39:45;14.37;;;10.07;;
3589;SDS011;1809;48.470;9.226;2023-02-28T08:42:11;9.77;;;7.27;;
3589;SDS011;1809;48.470;9.226;2023-02-28T08:44:36;12.43;;;8.60;;
3589;SDS011;1809;48.470;9.226;2023-02-28T08:47:01;16.73;;;8.90;;
3589;SDS011;1809;48.470;9.226;2023-02-28T08:49:27;13.03;;;8.93;;
3589;SDS011;1809;48.470;9.226;2023-02-28T08:51:53;12.90;;;9.07;;
3589;SDS011;1809;48.470;9.226;2023-02-28T08:54:20;10.97;;;7.60;;
3589;SDS011;1809;48.470;9.226;2023-02-28T08:56:46;14.63;;;8.93;;
3589;SDS011;1809;48.470;9.226;2023-02-28T08:59:14;15.23;;;9.07;;
3589;SDS011;1809;48.470;9.226;2023-02-28T09:01:39;16.53;;;8.87;;
3589;SDS011;1809;48.470;9.226;2023-02-28T09:04:06;13.50;;;8.57;;
3589;SDS011;1809;48.470;9.226;2023-02-28T09:06:33;15.40;;;8.50;;
3589;SDS011;1809;48.470;9.226;2023-02-28T09:08:59;20.27;;;9.37;;
3589;SDS011;1809;48.470;9.226;2023-02-28T09:11:26;13.93;;;9.10;;
3589;SDS011;1809;48.470;9.226;2023-02-28T09:13:52;15.83;;;9.50;;
3589;SDS011;1809;48.470;9.226;2023-02-28T09:16:17;14.87;;;9.10;;
3589;SDS011;1809;48.470;9.226;2023-02-28T09:18:43;16.03;;;8.90;;
3589;SDS011;1809;48.470;9.226;2023-02-28T09:21:10;12.77;;;8.33;;
3589;SDS011;1809;48.470;9.226;2023-02-28T09:23:39;17.23;;;8.70;;
3589;SDS011;1809;48.470;9.226;2023-02-28T09:26:05;11.57;;;8.20;;
3589;SDS011;1809;48.470;9.226;2023-02-28T09:28:31;14.00;;;8.80;;
3589;SDS011;1809;48.470;9.226;2023-02-28T09:30:56;13.70;;;8.30;;
3589;SDS011;1809;48.470;9.226;2023-02-28T09:33:23;16.23;;;9.70;;
3589;SDS011;1809;48.470;9.226;2023-02-28T09:35:49;12.27;;;9.47;;
3589;SDS011;1809;48.470;9.226;2023-02-28T09:38:16;13.40;;;8.40;;
3589;SDS011;1809;48.470;9.226;2023-02-28T09:40:49;11.30;;;9.43;;
3589;SDS011;1809;48.470;9.226;2023-02-28T09:43:17;15.67;;;9.33;;
3589;SDS011;1809;48.470;9.226;2023-02-28T09:45:48;21.03;;;10.00;;
3589;SDS011;1809;48.470;9.226;2023-02-28T09:48:19;12.23;;;8.57;;
3589;SDS011;1809;48.470;9.226;2023-02-28T09:50:50;16.77;;;10.23;;
3589;SDS011;1809;48.470;9.226;2023-02-28T09:53:35;15.07;;;9.13;;
3589;SDS011;1809;48.470;9.226;2023-02-28T09:56:05;12.00;;;8.70;;
3589;SDS011;1809;48.470;9.226;2023-02-28T10:01:09;12.03;;;8.27;;
3589;SDS011;1809;48.470;9.226;2023-02-28T10:03:47;11.00;;;7.80;;
3589;SDS011;1809;48.470;9.226;2023-02-28T10:06:19;14.70;;;8.87;;
3589;SDS011;1809;48.470;9.226;2023-02-28T10:09:09;18.20;;;8.50;;
3589;SDS011;1809;48.470;9.226;2023-02-28T10:11:43;15.23;;;9.10;;
3589;SDS011;1809;48.470;9.226;2023-02-28T10:14:12;13.73;;;9.23;;
3589;SDS011;1809;48.470;9.226;2023-02-28T10:16:52;15.77;;;8.37;;
3589;SDS011;1809;48.470;9.226;2023-02-28T10:22:14;14.90;;;9.43;;
3589;SDS011;1809;48.470;9.226;2023-02-28T10:24:50;12.30;;;9.80;;
3589;SDS011;1809;48.470;9.226;2023-02-28T10:27:19;15.57;;;9.30;;
3589;SDS011;1809;48.470;9.226;2023-02-28T10:29:57;16.47;;;9.90;;
3589;SDS011;1809;48.470;9.226;2023-02-28T10:32:26;16.70;;;9.20;;
3589;SDS011;1809;48.470;9.226;2023-02-28T10:35:09;16.40;;;9.93;;
3589;SDS011;1809;48.470;9.226;2023-02-28T10:37:43;14.33;;;10.43;;
3589;SDS011;1809;48.470;9.226;2023-02-28T10:40:33;14.27;;;9.70;;
3589;SDS011;1809;48.470;9.226;2023-02-28T10:42:59;15.93;;;10.30;;
3589;SDS011;1809;48.470;9.226;2023-02-28T10:48:33;15.10;;;8.97;;
3589;SDS011;1809;48.470;9.226;2023-02-28T10:51:02;12.80;;;8.37;;
3589;SDS011;1809;48.470;9.226;2023-02-28T10:53:31;13.67;;;8.50;;
3589;SDS011;1809;48.470;9.226;2023-02-28T11:01:33;13.73;;;9.10;;
3589;SDS011;1809;48.470;9.226;2023-02-28T11:06:47;12.23;;;8.60;;
3589;SDS011;1809;48.470;9.226;2023-02-28T11:09:25;17.10;;;10.00;;
3589;SDS011;1809;48.470;9.226;2023-02-28T11:11:55;13.43;;;9.03;;
3589;SDS011;1809;48.470;9.226;2023-02-28T11:14:22;12.90;;;9.23;;
3589;SDS011;1809;48.470;9.226;2023-02-28T11:16:57;16.03;;;9.40;;
3589;SDS011;1809;48.470;9.226;2023-02-28T11:19:31;22.30;;;10.27;;
3589;SDS011;1809;48.470;9.226;2023-02-28T11:22:03;12.53;;;7.93;;
3589;SDS011;1809;48.470;9.226;2023-02-28T11:24:31;17.00;;;9.13;;
3589;SDS011;1809;48.470;9.226;2023-02-28T11:27:01;21.13;;;9.57;;
3589;SDS011;1809;48.470;9.226;2023-02-28T11:29:28;13.67;;;10.10;;
3589;SDS011;1809;48.470;9.226;2023-02-28T11:34:38;18.83;;;10.13;;
3589;SDS011;1809;48.470;9.226;2023-02-28T11:37:05;16.30;;;10.63;;
3589;SDS011;1809;48.470;9.226;2023-02-28T11:39:36;17.63;;;10.50;;
3589;SDS011;1809;48.470;9.226;2023-02-28T11:44:43;11.87;;;8.97;;
3589;SDS011;1809;48.470;9.226;2023-02-28T11:50:32;16.83;;;10.30;;
3589;SDS011;1809;48.470;9.226;2023-02-28T12:07:00;15.20;;;10.10;;
3589;SDS011;1809;48.470;9.226;2023-02-28T12:18:16;13.07;;;10.20;;
3589;SDS011;1809;48.470;9.226;2023-02-28T12:21:11;22.20;;;11.53;;
3589;SDS011;1809;48.470;9.226;2023-02-28T12:26:50;17.53;;;10.27;;
3589;SDS011;1809;48.470;9.226;2023-02-28T12:29:26;16.97;;;10.83;;
3589;SDS011;1809;48.470;9.226;2023-02-28T12:34:39;17.00;;;10.23;;
3589;SDS011;1809;48.470;9.226;2023-02-28T12:37:10;16.90;;;10.47;;
3589;SDS011;1809;48.470;9.226;2023-02-28T12:39:56;14.60;;;11.10;;
3589;SDS011;1809;48.470;9.226;2023-02-28T12:42:40;16.90;;;11.20;;
3589;SDS011;1809;48.470;9.226;2023-02-28T12:47:44;12.43;;;10.23;;
3589;SDS011;1809;48.470;9.226;2023-02-28T12:50:14;14.03;;;10.00;;
3589;SDS011;1809;48.470;9.226;2023-02-28T12:55:14;15.20;;;10.13;;
3589;SDS011;1809;48.470;9.226;2023-02-28T13:00:38;13.30;;;10.13;;
3589;SDS011;1809;48.470;9.226;2023-02-28T13:09:16;17.33;;;9.80;;
3589;SDS011;1809;48.470;9.226;2023-02-28T13:11:49;16.80;;;10.07;;
3589;SDS011;1809;48.470;9.226;2023-02-28T13:16:57;13.60;;;10.70;;
3589;SDS011;1809;48.470;9.226;2023-02-28T13:20:13;17.50;;;10.10;;
3589;SDS011;1809;48.470;9.226;2023-02-28T13:27:47;17.73;;;10.77;;
3589;SDS011;1809;48.470;9.226;2023-02-28T13:38:41;11.30;;;9.33;;
3589;SDS011;1809;48.470;9.226;2023-02-28T13:44:00;12.33;;;8.63;;
3589;SDS011;1809;48.470;9.226;2023-02-28T13:46:28;14.60;;;8.90;;
3589;SDS011;1809;48.470;9.226;2023-02-28T13:48:54;16.90;;;10.43;;
3589;SDS011;1809;48.470;9.226;2023-02-28T14:05:00;12.27;;;8.63;;
3589;SDS011;1809;48.470;9.226;2023-02-28T14:07:32;12.70;;;10.00;;
3589;SDS011;1809;48.470;9.226;2023-02-28T14:10:04;16.00;;;9.80;;
3589;SDS011;1809;48.470;9.226;2023-02-28T14:17:53;15.67;;;10.30;;
3589;SDS011;1809;48.470;9.226;2023-02-28T14:20:20;12.17;;;10.10;;
3589;SDS011;1809;48.470;9.226;2023-02-28T14:28:03;12.50;;;8.97;;
3589;SDS011;1809;48.470;9.226;2023-02-28T14:31:03;13.90;;;8.80;;
3589;SDS011;1809;48.470;9.226;2023-02-28T14:36:17;10.77;;;8.80;;
3589;SDS011;1809;48.470;9.226;2023-02-28T14:38:50;18.83;;;10.23;;
3589;SDS011;1809;48.470;9.226;2023-02-28T14:41:20;13.50;;;8.87;;
3589;SDS011;1809;48.470;9.226;2023-02-28T14:43:55;12.20;;;8.83;;
3589;SDS011;1809;48.470;9.226;2023-02-28T14:46:23;13.70;;;8.80;;
3589;SDS011;1809;48.470;9.226;2023-02-28T14:48:52;15.20;;;9.80;;
3589;SDS011;1809;48.470;9.226;2023-02-28T14:51:18;16.90;;;9.80;;
3589;SDS011;1809;48.470;9.226;2023-02-28T14:53:48;12.23;;;8.80;;
3589;SDS011;1809;48.470;9.226;2023-02-28T14:56:20;14.30;;;8.23;;
3589;SDS011;1809;48.470;9.226;2023-02-28T14:58:54;39.53;;;9.03;;
3589;SDS011;1809;48.470;9.226;2023-02-28T15:01:22;12.93;;;9.70;;
3589;SDS011;1809;48.470;9.226;2023-02-28T15:03:56;15.87;;;9.87;;
3589;SDS011;1809;48.470;9.226;2023-02-28T15:06:23;12.10;;;8.90;;
3589;SDS011;1809;48.470;9.226;2023-02-28T15:09:06;13.50;;;8.43;;
3589;SDS011;1809;48.470;9.226;2023-02-28T15:11:35;11.93;;;8.63;;
3589;SDS011;1809;48.470;9.226;2023-02-28T15:14:02;16.23;;;9.63;;
3589;SDS011;1809;48.470;9.226;2023-02-28T15:16:33;16.90;;;9.70;;
3589;SDS011;1809;48.470;9.226;2023-02-28T15:21:38;13.53;;;8.40;;
3589;SDS011;1809;48.470;9.226;2023-02-28T15:24:11;13.33;;;8.40;;
3589;SDS011;1809;48.470;9.226;2023-02-28T15:26:53;12.97;;;8.27;;
3589;SDS011;1809;48.470;9.226;2023-02-28T15:29:23;12.40;;;9.40;;
3589;SDS011;1809;48.470;9.226;2023-02-28T15:34:27;10.90;;;8.97;;
3589;SDS011;1809;48.470;9.226;2023-02-28T15:36:58;18.60;;;9.97;;
3589;SDS011;1809;48.470;9.226;2023-02-28T15:39:25;17.30;;;9.40;;
3589;SDS011;1809;48.470;9.226;2023-02-28T15:41:52;11.30;;;8.63;;
3589;SDS011;1809;48.470;9.226;2023-02-28T15:44:35;15.63;;;9.10;;
3589;SDS011;1809;48.470;9.226;2023-02-28T15:47:04;11.63;;;8.23;;
3589;SDS011;1809;48.470;9.226;2023-02-28T15:49:39;15.73;;;11.53;;
3589;SDS011;1809;48.470;9.226;2023-02-28T15:52:12;11.23;;;8.50;;
3589;SDS011;1809;48.470;9.226;2023-02-28T15:54:43;13.47;;;9.27;;
3589;SDS011;1809;48.470;9.226;2023-02-28T15:57:13;13.63;;;9.83;;
3589;SDS011;1809;48.470;9.226;2023-02-28T15:59:44;14.90;;;9.93;;
3589;SDS011;1809;48.470;9.226;2023-02-28T16:02:34;12.93;;;9.37;;
3589;SDS011;1809;48.470;9.226;2023-02-28T16:07:36;12.07;;;8.77;;
3589;SDS011;1809;48.470;9.226;2023-02-28T16:10:09;15.10;;;10.23;;
3589;SDS011;1809;48.470;9.226;2023-02-28T16:12:37;16.40;;;10.47;;
3589;SDS011;1809;48.470;9.226;2023-02-28T16:15:25;12.90;;;9.30;;
3589;SDS011;1809;48.470;9.226;2023-02-28T16:17:51;15.23;;;9.63;;
3589;SDS011;1809;48.470;9.226;2023-02-28T16:20:22;17.10;;;10.53;;
3589;SDS011;1809;48.470;9.226;2023-02-28T16:22:53;16.10;;;11.17;;
3589;SDS011;1809;48.470;9.226;2023-02-28T16:25:23;14.40;;;9.00;;
3589;SDS011;1809;48.470;9.226;2023-02-28T16:27:58;13.83;;;8.23;;
3589;SDS011;1809;48.470;9.226;2023-02-28T16:30:25;15.50;;;9.10;;
3589;SDS011;1809;48.470;9.226;2023-02-28T16:32:53;13.30;;;8.63;;
3589;SDS011;1809;48.470;9.226;2023-02-28T16:35:20;17.70;;;9.23;;
3589;SDS011;1809;48.470;9.226;2023-02-28T16:37:46;16.70;;;9.73;;
3589;SDS011;1809;48.470;9.226;2023-02-28T16:40:13;14.27;;;8.57;;
3589;SDS011;1809;48.470;9.226;2023-02-28T16:42:40;16.43;;;8.90;;
3589;SDS011;1809;48.470;9.226;2023-02-28T16:45:06;14.37;;;9.03;;
3589;SDS011;1809;48.470;9.226;2023-02-28T16:47:40;15.07;;;8.53;;
3589;SDS011;1809;48.470;9.226;2023-02-28T16:50:20;20.23;;;8.10;;
3589;SDS011;1809;48.470;9.226;2023-02-28T16:52:50;13.37;;;9.60;;
3589;SDS011;1809;48.470;9.226;2023-02-28T16:55:17;18.20;;;10.27;;
3589;SDS011;1809;48.470;9.226;2023-02-28T16:57:43;13.63;;;8.20;;
3589;SDS011;1809;48.470;9.226;2023-02-28T17:00:12;12.23;;;8.13;;
3589;SDS011;1809;48.470;9.226;2023-02-28T17:02:38;17.13;;;9.50;;
3589;SDS011;1809;48.470;9.226;2023-02-28T17:05:04;16.27;;;10.13;;
3589;SDS011;1809;48.470;9.226;2023-02-28T17:07:29;13.33;;;8.20;;
3589;SDS011;1809;48.470;9.226;2023-02-28T17:09:55;15.60;;;9.27;;
3589;SDS011;1809;48.470;9.226;2023-02-28T17:12:20;14.07;;;8.07;;
3589;SDS011;1809;48.470;9.226;2023-02-28T17:14:45;20.00;;;8.50;;
3589;SDS011;1809;48.470;9.226;2023-02-28T17:17:18;13.57;;;8.50;;
3589;SDS011;1809;48.470;9.226;2023-02-28T17:19:46;11.17;;;7.93;;
3589;SDS011;1809;48.470;9.226;2023-02-28T17:22:15;14.60;;;8.47;;
3589;SDS011;1809;48.470;9.226;2023-02-28T17:24:40;24.07;;;10.00;;
3589;SDS011;1809;48.470;9.226;2023-02-28T17:27:05;16.53;;;9.30;;
3589;SDS011;1809;48.470;9.226;2023-02-28T17:29:33;14.57;;;8.27;;
3589;SDS011;1809;48.470;9.226;2023-02-28T17:31:58;16.40;;;9.10;;
3589;SDS011;1809;48.470;9.226;2023-02-28T17:34:26;16.53;;;9.50;;
3589;SDS011;1809;48.470;9.226;2023-02-28T17:36:52;15.40;;;10.30;;
3589;SDS011;1809;48.470;9.226;2023-02-28T17:39:17;15.90;;;9.80;;
3589;SDS011;1809;48.470;9.226;2023-02-28T17:41:48;19.63;;;10.80;;
3589;SDS011;1809;48.470;9.226;2023-02-28T17:44:17;21.77;;;11.33;;
3589;SDS011;1809;48.470;9.226;2023-02-28T17:46:43;18.80;;;10.40;;
3589;SDS011;1809;48.470;9.226;2023-02-28T17:49:10;13.73;;;8.60;;
3589;SDS011;1809;48.470;9.226;2023-02-28T17:51:35;13.17;;;9.60;;
3589;SDS011;1809;48.470;9.226;2023-02-28T17:54:01;25.87;;;13.33;;
3589;SDS011;1809;48.470;9.226;2023-02-28T17:56:26;27.60;;;15.53;;
3589;SDS011;1809;48.470;9.226;2023-02-28T17:58:53;21.90;;;12.07;;